Flight Track Log - Related Links

Times and Time Zones

All times are in EDT time to prevent confusion due to time zone crossing. See the SWA1969 flight status page for this flight to view local times or setup timezone preferences in your user account.

Time Position Orientation Groundspeed Altitude Reporting Facility
EDT Latitude Longitude Course Direction KTS MPH feet Rate Location/Type
Thu 11:11:50 AM 39.2833 -94.6500 90° East 170 196 2,900  Level Kansas City TRACON
Thu 11:13:02 AM 39.2667 -94.5500 102° East 271 312 6,000 2,898 Climbing Kansas City TRACON
Thu 11:14:17 AM 39.3311 -94.4722 43° Northeast 275 316 10,000 2,691 Climbing Kansas City Center
Thu 11:15:18 AM 39.3997 -94.4181 31° Northeast 312 359 12,100 2,352 Climbing Kansas City Center
Thu 11:16:22 AM 39.4775 -94.3583 31° Northeast 339 390 14,900 2,371 Climbing Kansas City Center
Thu 11:17:22 AM 39.5758 -94.2789 32° Northeast 371 427 17,000 1,041 Climbing Kansas City Center
Thu 11:18:23 AM 39.6647 -94.2094 31° Northeast 387 445 17,000 1,248 Level Kansas City Center
Thu 11:19:27 AM 39.7678 -94.1258 32° Northeast 390 449 19,600 2,400 Climbing Kansas City Center
Thu 11:20:28 AM 39.8528 -94.0506 34° Northeast 384 442 22,000 2,208 Climbing Kansas City Center
Thu 11:21:32 AM 39.9456 -93.9703 34° Northeast 401 461 24,200 1,968 Climbing Kansas City Center
Thu 11:22:33 AM 40.0303 -93.8642 44° Northeast 423 487 26,100 2,177 Climbing Kansas City Center
Thu 11:23:36 AM 40.1217 -93.7133 52° Northeast 452 520 28,700 2,129 Climbing Kansas City Center
Thu 11:24:37 AM 40.1497 -93.5469 78° East 472 543 30,500 1,131 Climbing Kansas City Center
Thu 11:25:38 AM 40.1772 -93.3736 78° East 485 558 31,000 240 Climbing Kansas City Center
Thu 11:26:42 AM 40.2058 -93.2000 78° East 492 566 31,000  Level Kansas City Center
Thu 11:27:43 AM 40.2367 -92.9989 79° East 488 562 31,000  Level Kansas City Center
Thu 11:28:45 AM 40.2633 -92.8289 78° East 492 566 31,000  Level Kansas City Center
Thu 11:29:48 AM 40.2939 -92.6328 78° East 493 567 31,000  Level Kansas City Center
Thu 11:30:49 AM 40.3197 -92.4653 79° East 490 564 31,000  Level Kansas City Center
Thu 11:31:52 AM 40.3464 -92.2736 80° East 497 572 31,000  Level Kansas City Center
Thu 11:32:53 AM 40.3714 -92.0986 79° East 493 567 31,000  Level Kansas City Center
Thu 11:33:56 AM 40.3958 -91.9250 79° East 489 563 31,000  Level Kansas City Center
Thu 11:34:57 AM 40.4208 -91.7492 79° East 492 566 31,000  Level Kansas City Center
Thu 11:35:48 AM 40.4447 -91.5758 80° East 489 563 31,000  Level Chicago Center
Thu 11:36:50 AM 40.4711 -91.3981 79° East 497 572 31,000  Level Chicago Center
Thu 11:37:52 AM 40.4972 -91.2058 80° East 493 567 31,000  Level Chicago Center
Thu 11:38:54 AM 40.5211 -91.0264 80° East 497 572 31,000 -194 Level Chicago Center
Thu 11:39:56 AM 40.5450 -90.8478 80° East 496 571 30,600 -677 Descending Chicago Center
Thu 11:40:58 AM 40.5686 -90.6686 80° East 499 574 29,600 -919 Descending Chicago Center
Thu 11:42:00 AM 40.5908 -90.4897 81° East 498 573 28,700 -919 Descending Chicago Center
Thu 11:43:02 AM 40.6142 -90.3128 80° East 494 568 27,700 -1,016 Descending Chicago Center
Thu 11:44:04 AM 40.6381 -90.1231 81° East 483 556 26,600 -1,016 Descending Chicago Center
Thu 11:45:06 AM 40.6600 -89.9528 80° East 476 548 25,600 -1,306 Descending Chicago Center
Thu 11:46:08 AM 40.6808 -89.7861 81° East 467 537 23,900 -1,935 Descending Chicago Center
Thu 11:47:10 AM 40.7533 -89.6244 59° Northeast 427 491 21,600 -2,081 Descending Chicago Center
Thu 11:48:12 AM 40.8108 -89.4900 60° Northeast 414 476 19,600 -1,872 Descending Chicago Center
Thu 11:49:15 AM 40.8658 -89.3625 60° Northeast 401 461 17,700 -1,200 Descending Chicago Center
Thu 11:50:17 AM 40.9186 -89.2389 61° Northeast 387 445 17,100 -677 Descending Chicago Center
Thu 11:51:19 AM 40.9703 -89.1175 61° Northeast 380 437 16,300 -968 Descending Chicago Center
Thu 11:52:21 AM 41.0278 -88.9808 61° Northeast 369 425 15,100 -1,065 Descending Chicago Center
Thu 11:53:23 AM 41.0775 -88.8631 61° Northeast 366 421 14,100 -968 Descending Chicago Center
Thu 11:54:25 AM 41.1256 -88.7475 61° Northeast 360 414 13,100 -1,161 Descending Chicago Center
Thu 11:55:27 AM 41.1728 -88.6333 61° Northeast 357 411 11,700 -1,355 Descending Chicago Center
Thu 11:56:29 AM 41.2181 -88.5242 61° Northeast 343 395 10,300 -1,790 Descending Chicago Center
Thu 11:57:31 AM 41.2967 -88.4614 31° Northeast 282 325 8,000 -1,887 Descending Chicago Center
Thu 11:58:33 AM 41.3656 -88.4222 23° Northeast 272 313 6,400 -968 Descending Chicago Center
Thu 11:59:35 AM 41.4281 -88.3764 29° Northeast 269 310 6,000 -339 Descending Chicago Center
Thu 12:00:37 PM 41.4531 -88.2831 70° East 270 311 5,700 -532 Descending Chicago Center
Thu 12:01:39 PM 41.4781 -88.1900 70° East 266 306 4,900 -384 Descending Chicago Center
Thu 12:02:42 PM 41.5025 -88.0958 71° East 265 305 4,900  Level Chicago Center
Thu 12:03:44 PM 41.5283 -88.0019 70° East 265 305 4,900  Level Chicago Center
Thu 12:04:46 PM 41.5492 -87.9061 74° East 272 313 4,900  Level Chicago Center
Thu 12:05:48 PM 41.5489 -87.7881 90° East 265 305 4,900  Level Chicago Center
Thu 12:06:50 PM 41.5508 -87.6878 88° East 268 308 4,900 -435 Level Chicago Center
Thu 12:07:52 PM 41.5894 -87.6211 52° Northeast 240 276 4,000 -968 Descending Chicago Center
Thu 12:08:54 PM 41.6361 -87.5819 32° Northeast 228 262 2,900 -774 Descending Chicago Center
Thu 12:09:56 PM 41.6808 -87.6069 337° Northwest 194 223 2,400 -202 Descending Chicago Center
Thu 12:10:53 PM 41.7167 -87.6500 318° Northwest 161 185 2,500 -305 Climbing Chicago TRACON
Thu 12:11:54 PM 41.7500 -87.7000 312° West 132 152 1,800 -730 Descending Chicago TRACON
Thu 12:12:48 PM 41.7667 -87.7333 304° West 133 153 1,100 -778 Descending Chicago TRACON

Login

Don't have an account? Register now (free) for customized features, flight alerts, and more!